Dominion, Canada
Current Conditions -  °F | °C
As of 5:26 AM on Sunday 26 Oct 2014 (Local Time) from CYQY Reporting Station
Haze Haze  
Wind Chill: 46°   Ceiling: 2300
Heat Index: 48°   Visibility: 4mi
Dew Point: 48°   Wind: 5mph
Humidity: 100%   Direction: 230°SW
Pressure: 29.48"   Gusts: NA
Location:  46.22°N, 60.02°W
Report Text: CYQY 260826Z 23004KT 4SM BR SCT004 BKN023 09/09 A2948 RMK ST3SC2 SLP984
Loading
Personal Weather Stations






























Interactive Weather Map
Tropical Storm Tracking
New forecast layout! Learn more

10-Day Weather Forecast

Advertisements
Track Severe Weather on mobile